Salem, OR (97305)

5:37 PM PDT en Octubre 22, 2014 (GMT -0700)
Central Howell | Change Station
CLOSE
Current Station
Estación meteorológica personal
Location: Silverton, OR
Altura: 217 ft
Estaciones meteorológicas cercanas

Alt 217 ft 44.99 °N, 122.87 °W | Updated 4 minutes ago

Lluvia
Lluvia
56.7 ° F
Sensación térmica 56.7 ° F
N
4.7
Viento Variable Viento desde SE

Hoy
Alta -- | Baja -- ° F
--% Posibilidad de precipitaciones
Ayer
Alta -- | Baja -- ° F
Precip. -- pul
7:36 AM 6:14 PM
Creciente menguante, 1% visible
Presión 29.74 pul
Visibilidad 4.0 Millas
Nubes Nubes dispersas 1500 ft
Muy nublado 7000 ft
Nublado 8500 ft
Punto de rocío 56 ° F
Humedad 99%
Precipitaciones 0.75 pul
Espesor de la nieve No disponible.
UV 0 de una escala de 12
Polen .30 de una escala de 12
Calidad del aire No disponible.
Flu Activity Sporadic
METAR KSLE 222356Z 20008KT 4SM RA BR SCT015 BKN070 OVC085 14/13 A2974 RMK AO2 SLP069 P0022 60057 T01440128 10156 20144 51009

More Conditions Fewer Conditions

Presión 29.74 pul
Visibilidad 4.0 Millas
Nubes Nubes dispersas 1500 ft
Muy nublado 7000 ft
Nublado 8500 ft
Punto de rocío 56 ° F
Humedad 99%
Precipitaciones 0.75 pul
Espesor de la nieve No disponible.
UV 0 de una escala de 12
Polen .30 de una escala de 12
Calidad del aire No disponible.
Flu Activity Sporadic
METAR KSLE 222356Z 20008KT 4SM RA BR SCT015 BKN070 OVC085 14/13 A2974 RMK AO2 SLP069 P0022 60057 T01440128 10156 20144 51009

More Conditions Fewer Conditions

10-Day Weather Forecast

Almanac

Astronomía

Oct. 22, 2014 Salida Puesta
Hora real 7:36 AM PDT 6:14 PM PDT
Crepúsculo civil 7:06 AM PDT 6:44 PM PDT
Crepúsculo náutico 6:32 AM PDT 7:18 PM PDT
Crepúsculo astronómico 5:58 AM PDT 7:52 PM PDT
Luna 6:20 AM PDT (10/22) 5:46 PM PDT (10/22)
Horas de luz 11h 37m
Horas de luz
10h 38m
Tomorrow will be 2m 57s shorter.
Creciente menguante, 1% of the Moon is Illuminated
Hoy
Creciente menguante
Oct 23
Nueva
Oct 30
Cuarto creciente
Nov 6
Luna llena
Nov 14
Cuarto menguante

Extremos de hoy

Máximos del estado Bajos del estado

Community

WunderPhotos

Upload Photos

1,764,095 ¡fotos cargadas!

WunderBlogs® & News

Nearby

Grosos de nieve

Estación Profundido Altura
Seine Creek 0 in 2000 ft
Saddle Mountain 2 in 3250 ft
Peavine Ridge 0 in 3500 ft
Daly Lake 0 in 3600 ft
Marion Forks 0 in 2600 ft

Actividad de terremotos

Ciudad Distance Mag. Tiempo y dato
No hay informes recientes de la actividad sísmica.
Magnitud mínima muestra es 2,5.

Temperaturas de aguas costeras

Lugar Temperatura
Sin partes meteorológicos de las estaciones

Estaciones meteorológicas cercanas